Time;durP1;ratioP1;P1;durP2;ratioP2;P2;SDS_P1;SDS_P2;PMS_P1;PMS_P2;Temp;Humidity;BMP_temperature;BMP_pressure;BME280_temperature;BME280_humidity;BME280_pressure;Samples;Min_cycle;Max_cycle;Signal;HPM_P1;HPM_P2
2021/12/24 00:01:39;;;;;;;51.20;26.70;;;;;;;;;;5033112;28;20175;-66
2021/12/24 00:04:08;;;;;;;57.03;30.53;;;;;;;;;;5048795;28;20190;-66
2021/12/24 00:06:35;;;;;;;50.60;26.93;;;;;;;;;;5048746;28;20190;-67
2021/12/24 00:09:01;;;;;;;46.20;23.50;;;;;;;;;;5033340;28;20257;-67
2021/12/24 00:11:27;;;;;;;50.77;26.60;;;;;;;;;;5048775;28;20179;-67
2021/12/24 00:13:53;;;;;;;49.83;25.80;;;;;;;;;;5048642;28;20616;-66
2021/12/24 00:16:26;;;;;;;45.83;24.83;;;;;;;;;;5048550;28;20182;-67
2021/12/24 00:37:30;;;;;;;49.83;27.63;;;;;;;;;;5033392;28;20622;-67
2021/12/24 00:40:11;;;;;;;45.93;24.60;;;;;;;;;;5032857;28;20207;-67
2021/12/24 00:42:37;;;;;;;38.57;23.30;;;;;;;;;;5048393;28;20278;-67
2021/12/24 00:45:04;;;;;;;38.43;23.87;;;;;;;;;;5032985;28;20190;-67
2021/12/24 00:47:30;;;;;;;42.33;25.30;;;;;;;;;;5048305;28;20187;-67
2021/12/24 00:49:57;;;;;;;33.00;17.27;;;;;;;;;;5032747;28;20707;-66
2021/12/24 00:55:09;;;;;;;39.93;22.77;;;;;;;;;;5033088;28;20190;-67
2021/12/24 00:57:43;;;;;;;41.03;24.23;;;;;;;;;;5048216;28;20206;-67
2021/12/24 01:00:29;;;;;;;39.03;23.73;;;;;;;;;;5032868;28;20694;-67
2021/12/24 01:02:56;;;;;;;37.73;23.93;;;;;;;;;;5029112;28;20277;-67
2021/12/24 01:05:25;;;;;;;38.10;23.80;;;;;;;;;;5048061;28;20187;-67
2021/12/24 01:07:51;;;;;;;40.10;23.97;;;;;;;;;;5032673;28;20211;-67
2021/12/24 01:10:21;;;;;;;41.00;23.73;;;;;;;;;;5047892;28;20207;-67
2021/12/24 01:12:48;;;;;;;38.33;23.53;;;;;;;;;;5049674;28;20190;-67
2021/12/24 01:15:15;;;;;;;36.97;23.67;;;;;;;;;;5036332;28;20183;-67
2021/12/24 01:17:53;;;;;;;41.47;22.93;;;;;;;;;;5036324;28;20195;-67
2021/12/24 01:20:28;;;;;;;35.53;22.17;;;;;;;;;;5051698;28;20178;-67
2021/12/24 01:25:33;;;;;;;31.07;21.03;;;;;;;;;;5036094;28;20186;-67
2021/12/24 01:28:36;;;;;;;38.00;22.87;;;;;;;;;;5051387;28;20642;-66
2021/12/24 01:44:31;;;;;;;35.93;22.53;;;;;;;;;;5036111;28;20309;-67
2021/12/24 01:47:02;;;;;;;37.73;24.07;;;;;;;;;;5036262;28;20179;-67
2021/12/24 01:49:28;;;;;;;34.40;22.67;;;;;;;;;;5050953;28;20210;-67
2021/12/24 01:51:55;;;;;;;39.87;24.33;;;;;;;;;;5050921;28;20179;-67
2021/12/24 01:54:21;;;;;;;37.87;22.37;;;;;;;;;;5050902;28;20190;-67
2021/12/24 01:56:47;;;;;;;34.43;22.63;;;;;;;;;;5035869;28;20647;-67
2021/12/24 01:59:13;;;;;;;37.83;24.50;;;;;;;;;;5050847;28;20203;-66
2021/12/24 02:01:40;;;;;;;41.90;24.97;;;;;;;;;;5035646;28;20214;-66
2021/12/24 02:04:06;;;;;;;34.37;22.07;;;;;;;;;;5051052;28;20591;-67
2021/12/24 02:06:32;;;;;;;39.27;24.70;;;;;;;;;;5035302;28;20647;-67
2021/12/24 02:08:58;;;;;;;44.13;24.27;;;;;;;;;;5035596;28;20341;-66
2021/12/24 02:11:24;;;;;;;40.53;25.23;;;;;;;;;;5050702;28;20680;-67
2021/12/24 02:13:51;;;;;;;42.67;27.20;;;;;;;;;;5050552;28;20674;-67
2021/12/24 02:16:42;;;;;;;43.43;27.27;;;;;;;;;;5035424;28;20175;-67
2021/12/24 02:29:48;;;;;;;47.50;28.13;;;;;;;;;;5035023;28;20218;-67
2021/12/24 02:32:14;;;;;;;47.97;27.67;;;;;;;;;;5050287;28;20183;-66
2021/12/24 02:34:40;;;;;;;53.90;30.23;;;;;;;;;;5035473;28;20661;-67
2021/12/24 02:37:06;;;;;;;45.40;28.17;;;;;;;;;;5050875;28;20266;-67
2021/12/24 02:39:32;;;;;;;42.27;25.27;;;;;;;;;;5050625;28;20595;-67
2021/12/24 02:42:09;;;;;;;45.87;27.40;;;;;;;;;;5050371;28;20283;-67
2021/12/24 02:44:35;;;;;;;51.33;28.10;;;;;;;;;;5035437;28;20237;-67
2021/12/24 02:47:15;;;;;;;55.20;28.33;;;;;;;;;;5036163;28;20190;-67
2021/12/24 02:54:58;;;;;;;46.47;28.70;;;;;;;;;;5036784;28;20200;-67
2021/12/24 02:57:27;;;;;;;48.90;29.67;;;;;;;;;;5034905;28;20183;-67
2021/12/24 03:00:07;;;;;;;50.90;28.00;;;;;;;;;;5055246;28;20199;-67
2021/12/24 03:02:34;;;;;;;49.93;28.83;;;;;;;;;;5062548;28;20553;-67
2021/12/24 03:05:01;;;;;;;46.70;27.17;;;;;;;;;;5062241;28;20182;-67
2021/12/24 03:07:27;;;;;;;46.77;29.87;;;;;;;;;;5059520;28;20186;-68
2021/12/24 03:09:53;;;;;;;48.70;28.87;;;;;;;;;;5039411;28;20207;-67
2021/12/24 03:12:19;;;;;;;52.43;29.47;;;;;;;;;;5034818;28;20177;-67
2021/12/24 03:14:45;;;;;;;53.87;30.87;;;;;;;;;;5034255;28;20186;-66
2021/12/24 03:17:16;;;;;;;57.40;31.47;;;;;;;;;;5049644;28;20175;-67
2021/12/24 03:19:42;;;;;;;59.60;30.37;;;;;;;;;;5034408;28;20288;-67
2021/12/24 03:24:53;;;;;;;55.87;32.67;;;;;;;;;;5034419;28;20186;-67
2021/12/24 03:27:19;;;;;;;60.77;33.80;;;;;;;;;;5034306;28;20575;-67
2021/12/24 03:29:45;;;;;;;41.90;24.23;;;;;;;;;;5033766;28;20203;-67
2021/12/24 03:32:11;;;;;;;50.63;31.03;;;;;;;;;;5033831;28;20201;-67
2021/12/24 03:34:37;;;;;;;57.23;34.60;;;;;;;;;;5033615;28;20258;-67
2021/12/24 03:37:04;;;;;;;56.07;32.93;;;;;;;;;;5033774;28;20171;-67
2021/12/24 03:39:30;;;;;;;51.17;31.77;;;;;;;;;;5033576;28;20214;-66
2021/12/24 03:41:56;;;;;;;53.07;31.53;;;;;;;;;;5049203;28;20186;-67
2021/12/24 03:44:31;;;;;;;58.87;32.70;;;;;;;;;;5033618;28;20647;-67
2021/12/24 03:47:04;;;;;;;63.23;36.07;;;;;;;;;;5048916;28;20174;-66
2021/12/24 03:50:12;;;;;;;46.43;28.67;;;;;;;;;;5033586;28;20198;-67
2021/12/24 03:54:56;;;;;;;57.50;33.10;;;;;;;;;;5033759;28;20183;-67
2021/12/24 03:57:36;;;;;;;57.33;34.23;;;;;;;;;;5048762;28;20558;-67
2021/12/24 04:00:06;;;;;;;54.70;32.10;;;;;;;;;;5033222;28;20249;-66
2021/12/24 04:02:32;;;;;;;59.00;33.50;;;;;;;;;;5048607;28;20237;-67
2021/12/24 04:04:58;;;;;;;56.63;33.07;;;;;;;;;;5048788;28;20651;-67
2021/12/24 04:07:24;;;;;;;57.23;32.60;;;;;;;;;;5048691;28;20226;-66
2021/12/24 04:10:02;;;;;;;60.60;32.43;;;;;;;;;;5033323;28;20214;-67
2021/12/24 04:12:28;;;;;;;56.87;32.60;;;;;;;;;;5033902;28;20160;-67
2021/12/24 04:14:54;;;;;;;56.63;33.47;;;;;;;;;;5048540;28;20179;-67
2021/12/24 04:17:21;;;;;;;65.07;35.10;;;;;;;;;;5033226;28;20191;-68
2021/12/24 04:25:35;;;;;;;52.50;29.87;;;;;;;;;;5031370;28;20186;-67
2021/12/24 04:28:02;;;;;;;63.57;37.30;;;;;;;;;;5032301;28;20223;-66
2021/12/24 04:30:38;;;;;;;75.23;37.63;;;;;;;;;;5033081;28;20202;-67
2021/12/24 04:33:18;;;;;;;70.87;36.70;;;;;;;;;;5033078;28;20158;-67
2021/12/24 04:35:56;;;;;;;69.67;37.90;;;;;;;;;;5048545;28;20210;-67
2021/12/24 04:51:52;;;;;;;63.57;35.80;;;;;;;;;;5036972;28;20270;-67
2021/12/24 05:02:53;;;;;;;61.83;35.30;;;;;;;;;;5036588;28;20166;-67
2021/12/24 05:06:08;;;;;;;67.67;36.03;;;;;;;;;;5036705;28;20191;-66
2021/12/24 05:08:18;;;;;;;68.33;35.47;;;;;;;;;;5035999;28;20211;-67
2021/12/24 05:10:44;;;;;;;74.63;36.37;;;;;;;;;;5051750;28;20559;-68
2021/12/24 05:13:11;;;;;;;69.97;35.30;;;;;;;;;;5036308;28;20175;-67
2021/12/24 05:15:39;;;;;;;63.93;35.30;;;;;;;;;;5051547;28;20573;-66
2021/12/24 05:23:35;;;;;;;73.30;34.97;;;;;;;;;;5036599;28;20241;-66
2021/12/24 05:26:01;;;;;;;65.53;34.27;;;;;;;;;;5051424;28;20187;-66
2021/12/24 05:28:27;;;;;;;64.30;33.47;;;;;;;;;;5035870;28;20249;-67
2021/12/24 05:30:53;;;;;;;73.33;37.23;;;;;;;;;;5051356;28;20207;-67
2021/12/24 05:33:19;;;;;;;60.90;32.73;;;;;;;;;;5036595;28;20596;-68
2021/12/24 05:35:45;;;;;;;62.60;32.03;;;;;;;;;;5051419;28;20242;-66
2021/12/24 05:38:13;;;;;;;68.57;33.80;;;;;;;;;;5050957;28;20219;-66
2021/12/24 05:40:39;;;;;;;59.17;33.10;;;;;;;;;;5051312;28;20225;-66
2021/12/24 05:43:05;;;;;;;71.77;35.10;;;;;;;;;;5036018;28;20187;-66
2021/12/24 05:45:31;;;;;;;67.37;35.73;;;;;;;;;;5051509;28;20183;-66
2021/12/24 05:47:57;;;;;;;65.90;35.70;;;;;;;;;;5036089;28;20186;-67
2021/12/24 05:50:24;;;;;;;71.67;38.03;;;;;;;;;;5051059;28;20213;-67
2021/12/24 05:52:50;;;;;;;66.57;35.43;;;;;;;;;;5035680;28;20249;-66
2021/12/24 05:55:16;;;;;;;61.43;35.83;;;;;;;;;;5035722;28;20593;-66
2021/12/24 05:57:42;;;;;;;71.17;35.43;;;;;;;;;;5050957;28;20270;-67
2021/12/24 06:00:09;;;;;;;69.80;34.57;;;;;;;;;;5035756;28;20317;-67
2021/12/24 06:02:35;;;;;;;66.60;33.43;;;;;;;;;;5035735;28;20171;-67
2021/12/24 06:05:01;;;;;;;66.10;34.97;;;;;;;;;;5050859;22;20187;-64
2021/12/24 06:07:27;;;;;;;68.13;36.23;;;;;;;;;;5018771;28;20195;-66
2021/12/24 06:09:53;;;;;;;69.57;35.93;;;;;;;;;;5018247;28;20306;-65
2021/12/24 06:12:19;;;;;;;63.33;34.83;;;;;;;;;;5033407;28;20668;-66
2021/12/24 06:14:52;;;;;;;71.37;35.37;;;;;;;;;;5017649;28;20653;-66
2021/12/24 06:17:18;;;;;;;63.60;34.90;;;;;;;;;;5018092;28;20160;-66
2021/12/24 06:19:44;;;;;;;61.10;33.97;;;;;;;;;;5015824;28;20184;-65
2021/12/24 06:22:12;;;;;;;62.77;35.07;;;;;;;;;;5018120;28;20237;-66
2021/12/24 06:24:38;;;;;;;72.47;39.50;;;;;;;;;;5016513;28;20183;-66
2021/12/24 06:27:04;;;;;;;71.80;37.47;;;;;;;;;;5017712;28;20718;-66
2021/12/24 06:29:31;;;;;;;130.97;58.60;;;;;;;;;;5017022;28;20587;-65
2021/12/24 06:31:57;;;;;;;131.77;60.93;;;;;;;;;;5016941;28;20254;-66
2021/12/24 06:34:23;;;;;;;153.23;76.17;;;;;;;;;;5017050;28;20685;-66
2021/12/24 06:36:51;;;;;;;91.30;44.83;;;;;;;;;;5015588;28;20208;-66
2021/12/24 06:39:17;;;;;;;79.97;45.80;;;;;;;;;;5015952;28;20183;-66
2021/12/24 06:41:43;;;;;;;76.53;42.10;;;;;;;;;;5017429;28;20255;-66
2021/12/24 06:44:11;;;;;;;85.70;45.57;;;;;;;;;;5015435;28;20191;-66
2021/12/24 06:46:38;;;;;;;66.20;39.83;;;;;;;;;;5017166;28;20192;-65
2021/12/24 06:49:04;;;;;;;77.37;38.17;;;;;;;;;;5017185;28;20230;-66
2021/12/24 06:51:30;;;;;;;71.30;36.50;;;;;;;;;;5016013;28;20248;-65
2021/12/24 06:53:56;;;;;;;71.50;35.93;;;;;;;;;;5017536;28;20176;-66
2021/12/24 06:56:22;;;;;;;67.50;35.07;;;;;;;;;;5017307;28;20199;-65
2021/12/24 06:58:48;;;;;;;58.33;33.53;;;;;;;;;;5016859;28;20352;-66
2021/12/24 07:01:14;;;;;;;65.40;36.30;;;;;;;;;;5017323;28;20220;-66
2021/12/24 07:03:41;;;;;;;69.37;40.77;;;;;;;;;;5015019;28;20207;-66
2021/12/24 07:06:08;;;;;;;65.87;36.80;;;;;;;;;;5016221;28;20302;-65
2021/12/24 07:08:33;;;;;;;60.57;31.87;;;;;;;;;;5015903;28;20184;-66
2021/12/24 07:10:59;;;;;;;61.97;34.73;;;;;;;;;;5014590;28;20176;-65
2021/12/24 07:13:26;;;;;;;65.53;34.53;;;;;;;;;;5016632;28;20254;-65
2021/12/24 07:15:52;;;;;;;65.70;33.37;;;;;;;;;;5016759;28;20282;-65
2021/12/24 07:18:18;;;;;;;60.03;33.43;;;;;;;;;;5016367;28;20203;-66
2021/12/24 07:20:44;;;;;;;58.57;32.53;;;;;;;;;;5016871;28;20551;-66
2021/12/24 07:23:10;;;;;;;63.63;32.77;;;;;;;;;;5016746;28;20286;-66
2021/12/24 07:25:36;;;;;;;64.03;33.23;;;;;;;;;;5016620;28;20252;-63
2021/12/24 07:28:02;;;;;;;57.80;31.73;;;;;;;;;;5016285;28;20175;-66
2021/12/24 07:30:28;;;;;;;51.73;29.87;;;;;;;;;;5016868;28;20199;-66
2021/12/24 07:32:54;;;;;;;59.83;29.60;;;;;;;;;;5014784;28;20185;-66
2021/12/24 07:35:21;;;;;;;54.37;31.07;;;;;;;;;;5016400;28;20195;-66
2021/12/24 07:37:46;;;;;;;55.80;30.13;;;;;;;;;;5015702;28;20553;-64
2021/12/24 07:40:17;;;;;;;56.90;32.60;;;;;;;;;;5016589;28;20182;-64
2021/12/24 07:42:44;;;;;;;58.13;31.17;;;;;;;;;;5015243;28;20175;-65
2021/12/24 07:45:10;;;;;;;48.90;27.63;;;;;;;;;;5015149;28;20578;-65
2021/12/24 07:47:40;;;;;;;52.00;29.63;;;;;;;;;;5016684;28;20266;-65
2021/12/24 07:52:52;;;;;;;45.87;30.37;;;;;;;;;;5016566;28;20178;-65
2021/12/24 07:55:18;;;;;;;48.10;28.93;;;;;;;;;;5016354;28;20218;-66
2021/12/24 07:57:46;;;;;;;47.57;25.80;;;;;;;;;;5015347;28;20676;-66
2021/12/24 08:00:12;;;;;;;52.60;30.53;;;;;;;;;;5016283;28;20190;-65
2021/12/24 08:02:38;;;;;;;51.37;28.83;;;;;;;;;;5017208;28;20655;-65
2021/12/24 08:05:04;;;;;;;48.50;27.20;;;;;;;;;;5015336;28;20205;-64
2021/12/24 08:07:30;;;;;;;53.63;27.67;;;;;;;;;;5016799;28;20650;-66
2021/12/24 08:09:56;;;;;;;51.47;30.03;;;;;;;;;;5016861;28;20207;-65
2021/12/24 08:12:22;;;;;;;53.53;30.43;;;;;;;;;;5016723;28;20254;-66
2021/12/24 08:14:48;;;;;;;51.83;28.63;;;;;;;;;;5015416;28;20172;-65
2021/12/24 08:17:16;;;;;;;49.20;29.10;;;;;;;;;;5016323;28;20187;-65
2021/12/24 08:19:42;;;;;;;50.10;28.03;;;;;;;;;;5016075;28;20172;-64
2021/12/24 08:22:08;;;;;;;49.03;28.37;;;;;;;;;;5018243;28;20190;-66
2021/12/24 08:24:34;;;;;;;46.13;26.80;;;;;;;;;;5021476;28;20180;-64
2021/12/24 08:27:00;;;;;;;45.37;27.57;;;;;;;;;;5018504;28;20208;-63
2021/12/24 08:29:26;;;;;;;50.83;27.70;;;;;;;;;;5018949;28;20568;-64
2021/12/24 08:31:52;;;;;;;53.37;28.93;;;;;;;;;;5021633;28;20263;-65
2021/12/24 08:34:19;;;;;;;49.53;28.07;;;;;;;;;;5021596;28;20176;-65
2021/12/24 08:36:46;;;;;;;50.57;26.77;;;;;;;;;;5020972;28;20203;-65
2021/12/24 08:39:13;;;;;;;47.03;27.33;;;;;;;;;;5020511;28;20274;-64
2021/12/24 08:41:39;;;;;;;47.43;27.17;;;;;;;;;;5022002;28;20662;-65
2021/12/24 08:44:05;;;;;;;49.93;28.17;;;;;;;;;;5022542;28;20223;-64
2021/12/24 08:46:31;;;;;;;50.07;28.37;;;;;;;;;;5021299;28;20271;-64
2021/12/24 08:48:57;;;;;;;52.60;27.20;;;;;;;;;;5023110;28;20207;-64
2021/12/24 08:51:23;;;;;;;49.30;27.27;;;;;;;;;;5022872;28;20211;-63
2021/12/24 08:53:49;;;;;;;46.13;26.53;;;;;;;;;;5023506;28;20176;-65
2021/12/24 08:56:15;;;;;;;45.63;25.87;;;;;;;;;;5021350;28;20225;-64
2021/12/24 08:58:41;;;;;;;43.93;25.87;;;;;;;;;;5021427;28;20184;-64
2021/12/24 09:01:07;;;;;;;48.53;27.23;;;;;;;;;;5021402;28;20266;-65
2021/12/24 09:03:33;;;;;;;47.00;27.40;;;;;;;;;;5023222;28;20180;-63
2021/12/24 09:05:59;;;;;;;47.30;28.10;;;;;;;;;;5021698;28;20310;-64
2021/12/24 09:08:26;;;;;;;50.73;28.07;;;;;;;;;;5022674;28;20186;-63
2021/12/24 09:10:52;;;;;;;56.30;26.43;;;;;;;;;;5020461;28;20203;-64
2021/12/24 09:13:18;;;;;;;45.80;26.00;;;;;;;;;;5022323;28;20176;-64
2021/12/24 09:15:44;;;;;;;56.67;28.87;;;;;;;;;;5022147;28;20203;-64
2021/12/24 09:18:10;;;;;;;41.23;26.20;;;;;;;;;;5021741;28;20179;-64
2021/12/24 09:20:40;;;;;;;47.27;26.80;;;;;;;;;;5021686;28;20184;-63
2021/12/24 09:23:07;;;;;;;46.40;26.10;;;;;;;;;;5020008;28;20168;-64
2021/12/24 09:25:33;;;;;;;44.23;25.70;;;;;;;;;;5020943;28;20195;-64
2021/12/24 09:28:00;;;;;;;42.07;23.73;;;;;;;;;;5020611;28;20175;-64
2021/12/24 09:30:27;;;;;;;43.33;25.83;;;;;;;;;;5020679;28;20203;-64
2021/12/24 09:32:53;;;;;;;49.73;25.30;;;;;;;;;;5019221;28;20180;-64
2021/12/24 09:35:19;;;;;;;54.97;26.53;;;;;;;;;;5019669;28;20203;-64
2021/12/24 09:37:47;;;;;;;47.40;25.67;;;;;;;;;;5020356;28;20226;-64
2021/12/24 09:40:14;;;;;;;46.70;24.87;;;;;;;;;;5019290;28;20183;-64
2021/12/24 09:42:40;;;;;;;43.93;24.10;;;;;;;;;;5019386;28;20212;-64
2021/12/24 09:45:07;;;;;;;43.43;24.47;;;;;;;;;;5020663;28;20199;-64
2021/12/24 09:47:33;;;;;;;49.17;25.07;;;;;;;;;;5020976;28;20183;-64
2021/12/24 09:49:59;;;;;;;47.80;25.30;;;;;;;;;;5020604;28;20214;-64
2021/12/24 09:52:26;;;;;;;51.33;25.80;;;;;;;;;;5020441;28;20275;-64
2021/12/24 09:54:52;;;;;;;50.63;26.00;;;;;;;;;;5019360;28;20762;-63
2021/12/24 09:57:19;;;;;;;48.17;25.67;;;;;;;;;;5019170;28;20234;-64
2021/12/24 09:59:45;;;;;;;48.57;26.87;;;;;;;;;;5018521;28;20193;-63
2021/12/24 10:02:17;;;;;;;41.77;22.83;;;;;;;;;;5020379;28;20648;-64
2021/12/24 10:04:44;;;;;;;38.50;23.00;;;;;;;;;;5017496;28;20246;-63
2021/12/24 10:07:11;;;;;;;42.33;23.30;;;;;;;;;;5019337;28;20299;-64
2021/12/24 10:09:39;;;;;;;42.53;23.23;;;;;;;;;;5019042;28;20590;-64
2021/12/24 10:12:09;;;;;;;57.03;33.03;;;;;;;;;;5020982;28;20179;-64
2021/12/24 10:14:36;;;;;;;46.50;29.27;;;;;;;;;;5019335;28;20215;-64
2021/12/24 10:17:03;;;;;;;41.60;23.80;;;;;;;;;;5019256;28;20576;-64
2021/12/24 10:19:29;;;;;;;62.20;31.10;;;;;;;;;;5018827;28;20184;-63
2021/12/24 10:22:00;;;;;;;45.90;25.77;;;;;;;;;;5020114;28;20266;-65
2021/12/24 10:24:27;;;;;;;38.80;22.33;;;;;;;;;;5018552;28;20629;-64
2021/12/24 10:26:54;;;;;;;38.63;21.27;;;;;;;;;;5017255;28;20672;-64
2021/12/24 10:29:32;;;;;;;45.63;24.97;;;;;;;;;;5018353;28;20196;-64
2021/12/24 10:32:07;;;;;;;37.80;21.67;;;;;;;;;;5017210;28;20175;-62
2021/12/24 10:34:36;;;;;;;40.97;24.47;;;;;;;;;;5018163;28;20612;-63
2021/12/24 10:37:03;;;;;;;34.20;20.60;;;;;;;;;;5019137;28;20266;-64
2021/12/24 10:39:33;;;;;;;36.53;20.57;;;;;;;;;;5020165;28;20187;-63
2021/12/24 10:42:00;;;;;;;40.40;19.63;;;;;;;;;;5019633;28;20183;-63
2021/12/24 10:44:32;;;;;;;31.80;20.03;;;;;;;;;;5019277;28;20184;-63
2021/12/24 10:47:04;;;;;;;29.57;19.33;;;;;;;;;;5019382;28;20286;-63
2021/12/24 10:54:52;;;;;;;36.13;19.40;;;;;;;;;;5019059;28;20624;-63
2021/12/24 10:57:19;;;;;;;33.97;19.23;;;;;;;;;;5017705;28;20187;-63
2021/12/24 10:59:49;;;;;;;43.23;25.37;;;;;;;;;;5017796;28;20187;-63
2021/12/24 11:02:15;;;;;;;42.87;21.20;;;;;;;;;;5019657;28;20222;-63
2021/12/24 11:04:41;;;;;;;31.77;18.90;;;;;;;;;;5019044;28;20676;-63
2021/12/24 11:07:27;;;;;;;42.77;20.93;;;;;;;;;;5018264;28;20234;-64
2021/12/24 11:10:12;;;;;;;39.80;23.17;;;;;;;;;;5011661;28;20219;-64
2021/12/24 11:12:39;;;;;;;33.17;19.33;;;;;;;;;;5018728;28;20187;-64
2021/12/24 11:15:25;;;;;;;38.13;19.17;;;;;;;;;;5018444;28;20184;-63
2021/12/24 11:17:53;;;;;;;27.27;16.73;;;;;;;;;;5018293;28;20180;-63
2021/12/24 11:20:19;;;;;;;33.47;16.53;;;;;;;;;;5016433;28;20188;-64
2021/12/24 11:22:51;;;;;;;32.63;17.30;;;;;;;;;;5016853;28;20227;-65
2021/12/24 11:25:19;;;;;;;29.60;16.33;;;;;;;;;;5019042;28;20199;-65
2021/12/24 11:27:45;;;;;;;29.60;17.37;;;;;;;;;;5019118;28;20176;-64
2021/12/24 11:30:11;;;;;;;29.93;18.57;;;;;;;;;;5020068;28;20218;-63
2021/12/24 11:32:37;;;;;;;36.17;18.27;;;;;;;;;;5020724;28;20190;-63
2021/12/24 11:35:03;;;;;;;38.77;19.53;;;;;;;;;;5019140;28;20703;-63
2021/12/24 11:37:30;;;;;;;30.57;18.40;;;;;;;;;;5018853;28;20597;-62
2021/12/24 11:39:56;;;;;;;33.80;19.73;;;;;;;;;;5017508;28;20191;-65
2021/12/24 11:42:22;;;;;;;33.17;20.40;;;;;;;;;;5015541;28;20556;-65
2021/12/24 11:44:49;;;;;;;37.97;20.53;;;;;;;;;;5014183;28;20184;-65
2021/12/24 11:47:15;;;;;;;40.40;20.00;;;;;;;;;;5014816;28;20187;-65
2021/12/24 11:49:41;;;;;;;32.97;18.80;;;;;;;;;;5015581;28;20213;-64
2021/12/24 11:52:08;;;;;;;33.47;19.37;;;;;;;;;;5017610;28;20180;-64
2021/12/24 11:54:34;;;;;;;38.27;20.37;;;;;;;;;;5017674;28;20698;-64
2021/12/24 11:57:00;;;;;;;39.20;20.67;;;;;;;;;;5016438;28;20196;-64
2021/12/24 11:59:39;;;;;;;40.23;21.37;;;;;;;;;;5015535;28;20627;-65
2021/12/24 12:02:06;;;;;;;41.23;23.53;;;;;;;;;;5014394;28;20194;-64
2021/12/24 12:04:32;;;;;;;48.67;27.33;;;;;;;;;;5015649;28;20176;-65
2021/12/24 12:07:17;;;;;;;48.07;22.63;;;;;;;;;;5014564;28;20569;-65
2021/12/24 12:09:43;;;;;;;42.83;23.20;;;;;;;;;;5014112;28;20565;-65
2021/12/24 12:12:13;;;;;;;38.77;21.90;;;;;;;;;;5014640;28;20184;-65
2021/12/24 12:14:39;;;;;;;43.23;22.80;;;;;;;;;;5015322;28;20175;-65
2021/12/24 12:17:07;;;;;;;41.13;23.27;;;;;;;;;;5015024;28;20204;-64
2021/12/24 12:22:14;;;;;;;40.03;24.90;;;;;;;;;;5015114;28;20616;-63
2021/12/24 12:27:19;;;;;;;49.80;26.10;;;;;;;;;;5015029;28;20229;-65
2021/12/24 12:29:45;;;;;;;43.87;26.07;;;;;;;;;;5013580;28;20226;-64
2021/12/24 12:32:17;;;;;;;46.03;24.83;;;;;;;;;;5013766;28;20184;-65
2021/12/24 12:34:43;;;;;;;51.03;25.73;;;;;;;;;;5015507;28;20271;-65
2021/12/24 12:37:28;;;;;;;44.57;24.20;;;;;;;;;;5013303;28;20322;-65
2021/12/24 12:39:57;;;;;;;46.10;25.60;;;;;;;;;;5015355;28;20259;-64
2021/12/24 12:42:24;;;;;;;44.60;24.80;;;;;;;;;;5015456;28;20263;-65
2021/12/24 12:44:53;;;;;;;43.13;26.10;;;;;;;;;;5013553;28;20179;-65
2021/12/24 12:47:21;;;;;;;50.53;27.50;;;;;;;;;;5013436;28;20207;-65
2021/12/24 12:49:47;;;;;;;55.17;26.53;;;;;;;;;;5014927;28;20200;-65
2021/12/24 12:52:21;;;;;;;53.47;26.10;;;;;;;;;;5015866;28;20173;-65
2021/12/24 12:54:52;;;;;;;47.50;26.10;;;;;;;;;;5015264;28;20179;-65
2021/12/24 12:57:20;;;;;;;56.13;29.20;;;;;;;;;;5014290;28;20176;-65
2021/12/24 13:00:04;;;;;;;70.10;37.37;;;;;;;;;;5014799;28;20188;-65
2021/12/24 13:02:49;;;;;;;56.10;29.80;;;;;;;;;;5013660;28;20666;-65
2021/12/24 13:05:15;;;;;;;66.63;33.57;;;;;;;;;;5014687;28;20222;-65
2021/12/24 13:07:41;;;;;;;55.33;31.43;;;;;;;;;;5015108;28;20192;-65
2021/12/24 13:10:08;;;;;;;49.33;28.80;;;;;;;;;;5016728;28;20230;-65
2021/12/24 13:12:34;;;;;;;51.93;27.37;;;;;;;;;;5018011;28;20179;-65
2021/12/24 13:15:01;;;;;;;50.30;27.40;;;;;;;;;;5018779;28;20176;-65
2021/12/24 13:17:35;;;;;;;56.40;27.93;;;;;;;;;;5017166;28;20550;-65
2021/12/24 13:20:14;;;;;;;45.47;27.33;;;;;;;;;;5018007;28;20230;-64
2021/12/24 13:22:40;;;;;;;48.97;26.27;;;;;;;;;;5018546;28;20156;-64
2021/12/24 13:25:13;;;;;;;43.33;25.80;;;;;;;;;;5017987;28;20191;-64
2021/12/24 13:27:44;;;;;;;56.87;29.80;;;;;;;;;;5016509;28;20195;-63
2021/12/24 13:30:22;;;;;;;45.43;26.07;;;;;;;;;;5016698;28;20306;-64
2021/12/24 13:32:49;;;;;;;47.80;29.07;;;;;;;;;;5018296;28;20255;-65
2021/12/24 13:35:17;;;;;;;50.43;26.60;;;;;;;;;;5018479;28;20293;-64
2021/12/24 13:37:46;;;;;;;47.43;27.17;;;;;;;;;;5016971;28;20182;-64
2021/12/24 13:40:13;;;;;;;47.77;26.60;;;;;;;;;;5016230;28;20183;-66
2021/12/24 13:42:43;;;;;;;49.17;27.33;;;;;;;;;;5017060;28;20195;-63
2021/12/24 13:45:08;;;;;;;38.30;26.80;;;;;;;;;;5017829;28;20231;-63
2021/12/24 13:55:35;;;;;;;44.57;26.27;;;;;;;;;;5018624;28;20291;-65
2021/12/24 13:58:03;;;;;;;46.97;25.57;;;;;;;;;;5033672;23;20244;-65
2021/12/24 14:00:30;;;;;;;40.97;27.13;;;;;;;;;;5016051;28;20586;-65
2021/12/24 14:02:58;;;;;;;46.43;24.67;;;;;;;;;;5015551;28;20184;-66
2021/12/24 14:05:25;;;;;;;45.13;24.93;;;;;;;;;;5015449;28;20180;-65
2021/12/24 14:08:04;;;;;;;39.27;24.17;;;;;;;;;;5030571;28;20208;-66
2021/12/24 14:10:30;;;;;;;42.13;25.37;;;;;;;;;;5015186;28;20210;-65
2021/12/24 14:13:04;;;;;;;41.90;27.07;;;;;;;;;;5015238;28;20184;-65
2021/12/24 14:15:31;;;;;;;44.60;25.83;;;;;;;;;;5030685;28;20168;-65
2021/12/24 14:18:21;;;;;;;45.20;26.17;;;;;;;;;;5015325;28;20199;-65
2021/12/24 14:23:25;;;;;;;36.73;23.20;;;;;;;;;;5015387;28;20172;-65
2021/12/24 14:26:11;;;;;;;44.50;24.33;;;;;;;;;;5015011;28;20175;-65
2021/12/24 14:28:37;;;;;;;43.17;25.57;;;;;;;;;;5014714;28;20250;-65
2021/12/24 14:31:04;;;;;;;39.40;25.33;;;;;;;;;;5015036;28;20176;-65
2021/12/24 14:33:35;;;;;;;41.60;26.17;;;;;;;;;;5014971;28;20168;-65
2021/12/24 14:36:02;;;;;;;43.10;28.00;;;;;;;;;;5015178;28;20172;-64
2021/12/24 14:38:28;;;;;;;40.03;24.47;;;;;;;;;;5029916;28;20688;-64
2021/12/24 14:40:59;;;;;;;42.10;24.97;;;;;;;;;;5015430;28;20183;-64
2021/12/24 14:43:25;;;;;;;44.43;25.83;;;;;;;;;;5017264;28;20180;-64
2021/12/24 14:45:52;;;;;;;40.53;24.77;;;;;;;;;;5032259;28;20187;-64
2021/12/24 14:48:21;;;;;;;40.60;24.47;;;;;;;;;;5017575;28;20200;-65
2021/12/24 14:50:47;;;;;;;39.47;23.17;;;;;;;;;;5032527;28;20222;-65
2021/12/24 14:53:20;;;;;;;44.80;25.00;;;;;;;;;;5029994;28;20180;-65
2021/12/24 14:55:47;;;;;;;34.87;23.23;;;;;;;;;;5029856;28;20282;-65
2021/12/24 14:58:17;;;;;;;38.60;23.67;;;;;;;;;;5014351;28;20226;-65
2021/12/24 15:00:45;;;;;;;59.80;34.87;;;;;;;;;;5014979;28;20164;-65
2021/12/24 15:03:12;;;;;;;42.63;31.33;;;;;;;;;;5029589;28;20648;-65
2021/12/24 15:05:49;;;;;;;67.87;39.63;;;;;;;;;;5029637;28;20218;-65
2021/12/24 15:08:17;;;;;;;49.50;32.23;;;;;;;;;;5014174;28;20199;-64
2021/12/24 15:10:55;;;;;;;49.83;29.37;;;;;;;;;;5014354;28;20210;-65
2021/12/24 15:13:22;;;;;;;41.73;26.20;;;;;;;;;;5029610;28;20215;-65
2021/12/24 15:15:50;;;;;;;38.57;25.37;;;;;;;;;;5014338;28;20180;-65
2021/12/24 15:18:16;;;;;;;44.70;26.27;;;;;;;;;;5029427;28;20203;-64
2021/12/24 15:20:42;;;;;;;40.13;25.90;;;;;;;;;;5014336;28;20184;-65
2021/12/24 15:23:08;;;;;;;49.17;28.17;;;;;;;;;;5014126;28;20234;-64
2021/12/24 15:25:34;;;;;;;34.47;24.90;;;;;;;;;;5014488;28;20644;-64
2021/12/24 15:28:08;;;;;;;38.90;24.77;;;;;;;;;;5014169;28;20202;-65
2021/12/24 15:30:34;;;;;;;37.93;24.47;;;;;;;;;;5028925;28;20205;-65
2021/12/24 15:33:00;;;;;;;38.67;24.40;;;;;;;;;;5029136;28;20286;-65
2021/12/24 15:35:26;;;;;;;45.60;26.00;;;;;;;;;;5014075;28;20184;-65
2021/12/24 15:37:52;;;;;;;48.10;26.03;;;;;;;;;;5028943;28;20211;-64
2021/12/24 15:40:18;;;;;;;37.90;24.43;;;;;;;;;;5014078;28;20258;-65
2021/12/24 15:42:44;;;;;;;38.53;24.37;;;;;;;;;;5014410;28;20179;-65
2021/12/24 15:45:10;;;;;;;39.50;24.63;;;;;;;;;;5028880;28;20187;-65
2021/12/24 15:47:36;;;;;;;41.63;24.07;;;;;;;;;;5013655;28;20188;-65
2021/12/24 15:50:03;;;;;;;41.03;23.57;;;;;;;;;;5028971;28;20247;-65
2021/12/24 15:52:29;;;;;;;54.67;29.67;;;;;;;;;;5028851;28;20179;-65
2021/12/24 15:54:55;;;;;;;38.90;23.77;;;;;;;;;;5028734;28;20179;-66
2021/12/24 15:57:21;;;;;;;37.43;23.57;;;;;;;;;;5013527;28;20172;-65
2021/12/24 15:59:47;;;;;;;40.03;23.83;;;;;;;;;;5028598;28;20218;-65
2021/12/24 16:02:14;;;;;;;39.43;23.63;;;;;;;;;;5013860;28;20691;-65
2021/12/24 16:04:40;;;;;;;42.07;24.13;;;;;;;;;;5013788;28;20552;-63
2021/12/24 16:07:06;;;;;;;38.40;24.00;;;;;;;;;;5013523;28;20591;-64
2021/12/24 16:09:32;;;;;;;41.83;24.20;;;;;;;;;;5013311;28;20216;-64
2021/12/24 16:11:58;;;;;;;38.13;24.67;;;;;;;;;;5029397;28;20539;-65
2021/12/24 16:14:25;;;;;;;32.67;21.90;;;;;;;;;;5013225;28;20183;-64
2021/12/24 16:16:51;;;;;;;44.00;23.10;;;;;;;;;;5012895;28;20172;-64
2021/12/24 16:19:19;;;;;;;39.53;24.27;;;;;;;;;;5012954;28;20195;-64